Buckeye, Texas
Current Conditions -  °F | °C
As of 6:27 PM on Thursday 18 Dec 2014 (Local Time) from KLBX Reporting Station
Light Rain Light Rain  
Wind Chill: 65°   Ceiling: 1900
Heat Index: 65°   Visibility: 7mi
Dew Point: 65°   Wind: 8mph
Humidity: 100%   Direction: 60°ENE
Pressure: 30.03"   Gusts: NA
Location:  28.8997°N, 95.7887°W
Report Text: KLBX 190027Z AUTO 06007KT 7SM -RA FEW008 BKN019 OVC038 18/18 A3003 RMK AO2 P0003 T01830183
Loading
Personal Weather Stations






























Interactive Weather Map New forecast layout! Learn more

10-Day Weather Forecast

Advertisements
Track Severe Weather on mobile